Time;durP1;ratioP1;P1;durP2;ratioP2;P2;SDS_P1;SDS_P2;PMS_P1;PMS_P2;Temp;Humidity;BMP_temperature;BMP_pressure;BME280_temperature;BME280_humidity;BME280_pressure;Samples;Min_cycle;Max_cycle;Signal;HPM_P1;HPM_P2
2023/03/16 00:00:30;;;;;;;30.80;13.20;;;;;;;1.06;78.81;100887.65;104729;1264;97993;-77
2023/03/16 00:03:19;;;;;;;25.10;11.80;;;;;;;1.04;78.79;100888.36;104808;1267;97977;-77
2023/03/16 00:06:05;;;;;;;27.60;13.60;;;;;;;1.00;78.82;100890.69;104950;1264;102117;-77
2023/03/16 00:08:51;;;;;;;25.50;14.00;;;;;;;0.99;79.02;100890.08;104891;1267;99101;-76
2023/03/16 00:11:36;;;;;;;32.20;13.20;;;;;;;0.98;78.93;100891.07;104782;1267;97991;-77
2023/03/16 00:14:22;;;;;;;26.40;13.30;;;;;;;0.97;79.16;100892.70;105301;1269;97975;-77
2023/03/16 00:17:17;;;;;;;25.50;12.10;;;;;;;0.99;79.36;100899.09;105025;1267;98469;-77
2023/03/16 00:20:05;;;;;;;31.00;12.70;;;;;;;1.00;79.45;100901.51;105038;1264;101353;-76
2023/03/16 00:22:51;;;;;;;32.10;14.40;;;;;;;0.98;79.49;100900.08;105022;1264;99118;-78
2023/03/16 00:25:37;;;;;;;35.80;14.30;;;;;;;0.93;79.63;100900.10;104974;1264;98987;-75
2023/03/16 00:28:23;;;;;;;28.70;13.30;;;;;;;0.87;79.71;100900.94;104793;1264;98006;-77
2023/03/16 00:31:11;;;;;;;30.90;13.90;;;;;;;0.79;79.88;100904.48;104823;1264;98528;-76
2023/03/16 00:33:56;;;;;;;32.30;14.50;;;;;;;0.75;80.08;100906.91;104991;1264;102599;-77
2023/03/16 00:36:42;;;;;;;31.70;14.20;;;;;;;0.73;80.22;100911.46;104892;1267;101205;-77
2023/03/16 00:39:27;;;;;;;33.90;13.30;;;;;;;0.72;80.48;100911.02;104949;1266;97987;-77
2023/03/16 00:42:17;;;;;;;28.20;13.80;;;;;;;0.72;80.63;100913.46;105017;1267;97869;-77
2023/03/16 00:45:04;;;;;;;26.30;13.40;;;;;;;0.71;80.79;100915.31;105323;1268;98035;-77
2023/03/16 00:47:53;;;;;;;30.30;13.70;;;;;;;0.70;80.82;100915.03;106659;1267;102019;-77
2023/03/16 00:50:39;;;;;;;28.60;14.00;;;;;;;0.70;80.78;100919.39;105063;1264;99168;-77
2023/03/16 00:53:25;;;;;;;32.00;14.10;;;;;;;0.70;80.49;100915.23;104902;1267;99548;-78
2023/03/16 00:56:12;;;;;;;30.50;13.00;;;;;;;0.70;80.53;100913.98;104794;1266;99135;-77
2023/03/16 00:58:58;;;;;;;26.30;13.20;;;;;;;0.70;80.30;100912.94;104729;1264;98407;-78
2023/03/16 01:01:45;;;;;;;31.60;14.80;;;;;;;0.68;80.17;100914.63;104866;1268;101470;-76
2023/03/16 01:04:31;;;;;;;30.80;15.20;;;;;;;0.66;80.24;100908.14;104837;1264;101185;-77
2023/03/16 01:07:18;;;;;;;31.10;14.90;;;;;;;0.63;80.09;100909.97;104735;1264;98922;-77
2023/03/16 01:10:05;;;;;;;33.50;15.60;;;;;;;0.61;80.12;100909.94;104836;1264;98054;-77
2023/03/16 01:12:54;;;;;;;33.50;14.40;;;;;;;0.59;80.19;100909.38;104762;1267;98156;-76
2023/03/16 01:15:40;;;;;;;32.00;13.60;;;;;;;0.55;80.08;100905.97;104846;1264;101382;-77
2023/03/16 01:18:27;;;;;;;32.50;15.80;;;;;;;0.54;80.19;100906.77;105069;1268;99139;-77
2023/03/16 01:21:13;;;;;;;30.70;15.10;;;;;;;0.53;80.23;100904.24;104967;1264;97987;-76
2023/03/16 01:23:59;;;;;;;37.70;15.80;;;;;;;0.50;80.42;100908.65;105122;1264;98046;-77
2023/03/16 01:26:45;;;;;;;36.50;16.90;;;;;;;0.47;80.57;100907.14;105033;1264;99177;-77
2023/03/16 01:29:32;;;;;;;32.10;15.70;;;;;;;0.44;80.39;100910.48;105073;1267;102767;-76
2023/03/16 01:32:17;;;;;;;37.30;15.60;;;;;;;0.42;80.24;100915.23;105063;1263;99281;-77
2023/03/16 01:35:03;;;;;;;32.90;14.80;;;;;;;0.39;80.45;100916.36;105094;1266;97978;-76
2023/03/16 01:37:50;;;;;;;36.10;16.10;;;;;;;0.38;80.70;100918.02;105087;1266;98001;-77
2023/03/16 01:40:40;;;;;;;31.60;14.60;;;;;;;0.38;80.74;100914.11;104902;1267;98452;-76
2023/03/16 01:43:30;;;;;;;30.50;14.20;;;;;;;0.37;80.68;100914.76;104763;1264;101333;-76
2023/03/16 01:46:26;;;;;;;28.60;15.10;;;;;;;0.35;80.53;100917.73;104948;1263;99094;-78
2023/03/16 01:49:29;;;;;;;26.20;13.60;;;;;;;0.31;80.49;100914.48;105109;1265;97991;-78
2023/03/16 01:52:23;;;;;;;29.50;14.90;;;;;;;0.29;80.66;100917.30;105108;1267;97993;-76
2023/03/16 01:55:14;;;;;;;34.50;15.30;;;;;;;0.27;80.73;100920.94;105106;1264;98494;-76
2023/03/16 01:58:00;;;;;;;29.90;15.20;;;;;;;0.27;80.91;100922.04;105102;1264;102443;-77
2023/03/16 02:00:47;;;;;;;38.60;15.60;;;;;;;0.26;81.25;100920.11;105087;1264;99067;-77
2023/03/16 02:03:38;;;;;;;30.20;15.60;;;;;;;0.25;81.21;100922.13;105099;1264;98346;-77
2023/03/16 02:06:37;;;;;;;33.10;16.50;;;;;;;0.22;81.02;100923.06;104919;1268;99167;-78
2023/03/16 02:09:24;;;;;;;38.70;16.10;;;;;;;0.19;80.85;100929.29;104834;1265;97897;-77
2023/03/16 02:12:16;;;;;;;35.00;15.40;;;;;;;0.17;80.84;100933.47;104806;1267;102045;-79
2023/03/16 02:15:04;;;;;;;37.30;17.30;;;;;;;0.16;80.80;100934.11;104797;1264;99475;-78
2023/03/16 02:17:50;;;;;;;27.00;12.80;;;;;;;0.15;80.94;100933.99;105046;1266;98465;-77
2023/03/16 02:20:52;;;;;;;28.70;14.50;;;;;;;0.14;81.01;100935.63;105081;1267;97980;-77
2023/03/16 02:23:37;;;;;;;29.80;14.20;;;;;;;0.14;80.95;100944.41;105085;1264;97992;-76
2023/03/16 02:26:29;;;;;;;29.50;16.30;;;;;;;0.14;80.94;100955.11;105110;1264;101376;-77
2023/03/16 02:29:21;;;;;;;33.40;14.50;;;;;;;0.14;81.10;100955.86;105156;1267;99070;-76
2023/03/16 02:32:10;;;;;;;35.10;14.30;;;;;;;0.13;81.28;100956.44;104985;1264;97981;-77
2023/03/16 02:34:58;;;;;;;35.60;16.00;;;;;;;0.14;81.32;100960.05;104989;1268;97980;-76
2023/03/16 02:37:44;;;;;;;29.20;14.10;;;;;;;0.13;81.31;100965.21;105079;1268;97940;-76
2023/03/16 02:40:32;;;;;;;34.70;14.70;;;;;;;0.12;81.33;100966.70;105140;1264;102874;-77
2023/03/16 02:43:26;;;;;;;37.40;16.10;;;;;;;0.10;81.05;100972.80;106533;1265;100352;-77
2023/03/16 02:46:35;;;;;;;35.40;16.20;;;;;;;0.07;81.29;100976.84;105115;1264;98925;-76
2023/03/16 02:49:23;;;;;;;33.70;16.30;;;;;;;0.05;81.20;100974.05;105180;1265;97949;-78
2023/03/16 02:52:10;;;;;;;28.70;14.60;;;;;;;0.03;81.13;100975.77;105146;1267;98498;-76
2023/03/16 02:54:56;;;;;;;37.90;15.70;;;;;;;0.02;81.17;100980.59;105120;1267;101393;-77
2023/03/16 02:57:42;;;;;;;32.40;15.30;;;;;;;-0.00;81.03;100981.42;105182;1264;99120;-77
2023/03/16 03:00:32;;;;;;;33.30;15.50;;;;;;;-0.02;81.01;100985.03;105174;1266;99010;-77
2023/03/16 03:03:18;;;;;;;31.90;16.50;;;;;;;-0.04;80.86;100987.66;104973;1264;97895;-76
2023/03/16 03:06:03;;;;;;;32.40;15.50;;;;;;;-0.06;80.91;100991.83;105115;1267;98478;-78
2023/03/16 03:08:53;;;;;;;38.70;18.30;;;;;;;-0.06;81.14;100992.23;105016;1266;103000;-76
2023/03/16 03:11:39;;;;;;;39.40;17.70;;;;;;;-0.07;81.24;100997.90;105104;1267;99080;-76
2023/03/16 03:14:27;;;;;;;33.40;17.00;;;;;;;-0.08;81.32;101003.09;105066;1264;100355;-78
2023/03/16 03:17:13;;;;;;;42.40;18.60;;;;;;;-0.11;81.27;101000.27;104822;1267;98057;-78
2023/03/16 03:20:05;;;;;;;41.50;18.40;;;;;;;-0.13;81.34;101003.23;104774;1267;97870;-78
2023/03/16 03:22:54;;;;;;;43.40;19.20;;;;;;;-0.13;81.44;101004.83;104941;1267;101378;-78
2023/03/16 03:25:39;;;;;;;38.50;18.90;;;;;;;-0.13;81.68;101013.25;104810;1270;99102;-77
2023/03/16 03:28:26;;;;;;;42.20;19.20;;;;;;;-0.14;81.83;101016.29;104905;1265;98160;-78
2023/03/16 03:31:20;;;;;;;47.50;20.50;;;;;;;-0.13;81.96;101014.97;104863;1264;98039;-78
2023/03/16 03:34:07;;;;;;;47.80;20.30;;;;;;;-0.14;82.15;101014.88;105130;1263;97714;-77
2023/03/16 03:36:54;;;;;;;43.30;20.30;;;;;;;-0.15;82.27;101018.50;104964;1264;101378;-77
2023/03/16 03:39:40;;;;;;;37.20;18.10;;;;;;;-0.16;82.31;101019.40;105066;1264;99151;-76
2023/03/16 03:42:26;;;;;;;38.90;19.70;;;;;;;-0.17;82.30;101020.33;105102;1265;99161;-76
2023/03/16 03:45:13;;;;;;;39.80;18.70;;;;;;;-0.14;82.48;101023.17;106092;1264;97959;-76
2023/03/16 03:47:58;;;;;;;40.30;18.90;;;;;;;-0.13;82.38;101025.71;105244;1267;98067;-77
2023/03/16 03:50:45;;;;;;;33.20;17.50;;;;;;;-0.14;82.49;101026.68;105045;1266;102261;-76
2023/03/16 03:53:51;;;;;;;42.80;17.90;;;;;;;-0.18;82.80;101025.02;105140;1268;99887;-76
2023/03/16 03:56:36;;;;;;;48.00;19.80;;;;;;;-0.19;82.88;101027.34;105134;1264;99260;-76
2023/03/16 03:59:23;;;;;;;41.60;19.40;;;;;;;-0.18;82.83;101028.16;104805;1268;97999;-77
2023/03/16 04:02:27;;;;;;;38.80;19.00;;;;;;;-0.17;82.53;101031.07;105044;1264;99053;-78
2023/03/16 04:05:14;;;;;;;43.90;18.10;;;;;;;-0.17;82.48;101031.45;105102;1267;101479;-76
2023/03/16 04:07:59;;;;;;;41.00;18.20;;;;;;;-0.19;82.38;101035.06;104964;1267;100125;-77
2023/03/16 04:10:46;;;;;;;36.20;18.90;;;;;;;-0.21;82.30;101035.73;104754;1267;99086;-76
2023/03/16 04:13:31;;;;;;;40.80;18.50;;;;;;;-0.24;82.18;101036.16;104798;1266;98580;-77
2023/03/16 04:16:18;;;;;;;38.40;17.80;;;;;;;-0.26;82.08;101038.40;105082;1267;98074;-77
2023/03/16 04:19:05;;;;;;;43.10;18.80;;;;;;;-0.26;81.96;101041.41;105046;1264;101393;-77
2023/03/16 04:21:51;;;;;;;41.60;18.90;;;;;;;-0.27;81.72;101047.28;105167;1267;100030;-77
2023/03/16 04:24:38;;;;;;;36.40;19.40;;;;;;;-0.30;81.69;101051.66;107953;1264;97741;-76
2023/03/16 04:27:23;;;;;;;42.50;19.20;;;;;;;-0.32;81.50;101056.89;106285;1267;98013;-78
2023/03/16 04:30:12;;;;;;;38.70;18.60;;;;;;;-0.33;81.94;101056.98;104801;1264;99694;-78
2023/03/16 04:33:00;;;;;;;36.70;18.20;;;;;;;-0.34;81.76;101054.59;104767;1263;101482;-76
2023/03/16 04:35:47;;;;;;;37.60;18.80;;;;;;;-0.37;81.70;101053.02;104854;1263;100342;-78
2023/03/16 04:38:34;;;;;;;36.80;18.80;;;;;;;-0.38;81.75;101055.05;105206;1267;97947;-78
2023/03/16 04:41:20;;;;;;;39.40;19.90;;;;;;;-0.38;81.79;101054.52;105065;1265;97771;-77
2023/03/16 04:44:13;;;;;;;39.60;18.60;;;;;;;-0.40;81.64;101052.92;105142;1267;97984;-77
2023/03/16 04:46:59;;;;;;;41.40;19.40;;;;;;;-0.44;81.48;101053.55;105216;1264;102611;-78
2023/03/16 04:49:47;;;;;;;40.90;20.60;;;;;;;-0.48;81.41;101052.73;105174;1264;100036;-77
2023/03/16 04:52:35;;;;;;;37.90;20.10;;;;;;;-0.49;81.26;101050.89;105126;1264;98709;-76
2023/03/16 04:55:21;;;;;;;44.20;20.70;;;;;;;-0.50;81.19;101053.09;105928;1265;98070;-79
2023/03/16 04:58:08;;;;;;;37.40;19.00;;;;;;;-0.50;81.32;101054.85;105221;1266;98545;-78
2023/03/16 05:00:56;;;;;;;47.00;21.20;;;;;;;-0.50;81.50;101057.96;105386;1264;102355;-78
2023/03/16 05:03:46;;;;;;;44.40;20.60;;;;;;;-0.49;81.69;101062.80;105232;1267;99898;-77
2023/03/16 05:06:31;;;;;;;50.40;23.50;;;;;;;-0.47;82.09;101064.10;105043;1267;98598;-78
2023/03/16 05:09:19;;;;;;;49.50;22.30;;;;;;;-0.44;82.25;101069.34;105140;1264;98035;-79
2023/03/16 05:12:06;;;;;;;55.80;24.20;;;;;;;-0.42;82.36;101071.80;105137;1267;98000;-78
2023/03/16 05:14:52;;;;;;;50.20;22.90;;;;;;;-0.40;82.47;101071.12;105116;1267;101426;-76
2023/03/16 05:17:54;;;;;;;62.20;28.50;;;;;;;-0.39;82.31;101072.30;105063;1262;99184;-78
2023/03/16 05:20:41;;;;;;;97.10;39.80;;;;;;;-0.40;82.11;101075.90;105149;1267;98607;-76
2023/03/16 05:23:27;;;;;;;91.90;39.50;;;;;;;-0.42;82.26;101074.08;105231;1267;97977;-77
2023/03/16 05:26:18;;;;;;;81.80;34.90;;;;;;;-0.43;82.23;101076.79;105187;1266;98071;-77
2023/03/16 05:29:04;;;;;;;57.40;28.50;;;;;;;-0.43;82.45;101081.35;105707;1263;101344;-76
2023/03/16 05:31:50;;;;;;;55.60;26.60;;;;;;;-0.43;82.82;101082.38;105077;1266;99749;-77
2023/03/16 05:34:37;;;;;;;51.70;26.30;;;;;;;-0.40;82.99;101085.00;105155;1267;99189;-77
2023/03/16 05:37:23;;;;;;;58.50;24.90;;;;;;;-0.37;83.32;101087.28;105111;1267;99369;-76
2023/03/16 05:40:19;;;;;;;63.00;25.00;;;;;;;-0.35;83.46;101087.14;104877;1267;99642;-76
2023/03/16 05:43:10;;;;;;;43.20;23.00;;;;;;;-0.32;83.76;101087.60;104984;1267;101347;-78
2023/03/16 05:45:59;;;;;;;54.30;23.70;;;;;;;-0.29;83.99;101087.05;105109;1267;100734;-78
2023/03/16 05:48:45;;;;;;;46.40;23.60;;;;;;;-0.29;83.91;101086.85;105040;1264;97978;-78
2023/03/16 05:51:34;;;;;;;48.90;23.10;;;;;;;-0.27;83.73;101089.54;105112;1267;98004;-77
2023/03/16 05:54:20;;;;;;;50.30;22.90;;;;;;;-0.24;83.74;101097.09;105316;1265;98875;-77
2023/03/16 05:57:07;;;;;;;50.60;23.40;;;;;;;-0.22;83.89;101096.53;105300;1266;102527;-77
2023/03/16 05:59:53;;;;;;;48.70;27.20;;;;;;;-0.18;84.21;101099.61;105127;1264;99238;-76
2023/03/16 06:02:41;;;;;;;62.10;29.90;;;;;;;-0.15;84.47;101101.83;105139;1266;98502;-78
2023/03/16 06:05:27;;;;;;;51.20;27.70;;;;;;;-0.13;84.44;101099.27;105827;1267;98065;-77
2023/03/16 06:08:14;;;;;;;58.30;27.50;;;;;;;-0.09;84.59;101104.92;105101;1266;99155;-78
2023/03/16 06:11:00;;;;;;;55.00;27.80;;;;;;;-0.06;84.96;101104.20;105180;1270;101371;-76
2023/03/16 06:13:46;;;;;;;85.20;42.90;;;;;;;-0.02;85.25;101106.71;105018;1264;100757;-77
2023/03/16 06:16:32;;;;;;;86.80;44.90;;;;;;;0.04;85.40;101103.16;105085;1264;98739;-77
2023/03/16 06:19:18;;;;;;;93.00;53.30;;;;;;;0.08;85.61;101106.92;105136;1267;98061;-78
2023/03/16 06:22:05;;;;;;;73.70;41.30;;;;;;;0.12;86.00;101114.15;105160;1267;98787;-78
2023/03/16 06:24:51;;;;;;;57.10;31.20;;;;;;;0.17;86.18;101113.61;105229;1266;101372;-76
2023/03/16 06:27:38;;;;;;;64.20;30.40;;;;;;;0.22;86.43;101112.95;105068;1267;99101;-76
2023/03/16 06:30:33;;;;;;;52.60;29.10;;;;;;;0.26;86.72;101120.70;105018;1265;97990;-78
2023/03/16 06:33:20;;;;;;;61.60;29.30;;;;;;;0.32;86.87;101124.00;105118;1267;97036;-76
2023/03/16 06:36:06;;;;;;;56.80;31.90;;;;;;;0.38;87.03;101125.81;104905;1267;98481;-77
2023/03/16 06:38:55;;;;;;;57.60;26.80;;;;;;;0.45;87.26;101128.48;104746;1263;102138;-76
2023/03/16 06:41:49;;;;;;;49.40;24.60;;;;;;;0.49;87.29;101130.26;105010;1264;100307;-76
2023/03/16 06:44:36;;;;;;;52.40;26.20;;;;;;;0.54;87.27;101131.48;105224;1268;97954;-77
2023/03/16 06:47:26;;;;;;;56.30;29.00;;;;;;;0.60;87.35;101136.30;104992;1264;98124;-77
2023/03/16 06:50:12;;;;;;;50.90;27.20;;;;;;;0.66;87.68;101136.57;105094;1267;98001;-79
2023/03/16 06:52:58;;;;;;;76.80;38.50;;;;;;;0.73;87.74;101137.65;105116;1264;101270;-76
2023/03/16 06:55:44;;;;;;;63.00;32.40;;;;;;;0.82;87.87;101136.34;105135;1265;99650;-78
2023/03/16 06:58:31;;;;;;;56.10;26.70;;;;;;;0.88;87.73;101137.08;105055;1266;97885;-77
2023/03/16 07:01:17;;;;;;;60.50;30.10;;;;;;;0.95;87.88;101138.31;105148;1265;99142;-76
2023/03/16 07:04:02;;;;;;;50.40;27.50;;;;;;;1.02;87.78;101139.74;105040;1264;97961;-77
2023/03/16 07:06:50;;;;;;;54.30;27.30;;;;;;;1.09;87.64;101139.05;105134;1264;103711;-76
2023/03/16 07:09:37;;;;;;;55.00;27.80;;;;;;;1.15;87.58;101142.13;105119;1269;99732;-77
2023/03/16 07:12:23;;;;;;;51.20;28.50;;;;;;;1.21;87.59;101146.95;104997;1267;99018;-77
2023/03/16 07:15:10;;;;;;;51.50;26.10;;;;;;;1.29;87.81;101149.52;105091;1264;97984;-77
2023/03/16 07:17:56;;;;;;;57.70;28.10;;;;;;;1.35;87.61;101149.94;105089;1264;99731;-77
2023/03/16 07:20:42;;;;;;;56.40;27.20;;;;;;;1.43;87.72;101150.52;104809;1265;101327;-76
2023/03/16 07:23:28;;;;;;;45.70;24.90;;;;;;;1.49;87.51;101150.06;104822;1268;99756;-76
2023/03/16 07:26:18;;;;;;;45.80;25.10;;;;;;;1.53;87.16;101152.80;104650;1263;99245;-77
2023/03/16 07:29:13;;;;;;;50.60;25.70;;;;;;;1.60;87.25;101152.77;104717;1267;97558;-78
2023/03/16 07:31:58;;;;;;;51.00;24.70;;;;;;;1.68;87.23;101153.24;104729;1267;99660;-76
2023/03/16 07:34:50;;;;;;;51.50;28.80;;;;;;;1.73;87.13;101154.10;104710;1265;101415;-77
2023/03/16 07:37:36;;;;;;;49.60;25.40;;;;;;;1.79;87.26;101154.83;104684;1266;99105;-77
2023/03/16 07:40:22;;;;;;;45.70;23.60;;;;;;;1.87;87.11;101154.77;105564;1266;98592;-77
2023/03/16 07:43:08;;;;;;;51.70;24.00;;;;;;;1.95;87.41;101153.23;104760;1267;98070;-77
2023/03/16 07:45:57;;;;;;;49.40;23.20;;;;;;;2.03;87.21;101154.18;104881;1268;97975;-76
2023/03/16 07:48:44;;;;;;;50.50;26.20;;;;;;;2.11;86.96;101157.80;104729;1266;110790;-76
2023/03/16 07:51:30;;;;;;;61.00;39.10;;;;;;;2.19;87.05;101158.23;104761;1268;99104;-78
2023/03/16 07:54:16;;;;;;;54.50;28.20;;;;;;;2.29;87.27;101159.54;104918;1267;99596;-77
2023/03/16 07:57:02;;;;;;;45.80;23.60;;;;;;;2.39;87.02;101158.23;105091;1268;97993;-76
2023/03/16 07:59:51;;;;;;;46.00;24.90;;;;;;;2.47;86.68;101162.70;104975;1264;98067;-76
2023/03/16 08:02:37;;;;;;;44.10;25.20;;;;;;;2.54;86.63;101160.52;104780;1266;101376;-78
2023/03/16 08:05:24;;;;;;;49.90;24.80;;;;;;;2.62;86.60;101160.41;104765;1268;99064;-77
2023/03/16 08:08:14;;;;;;;38.90;18.70;;;;;;;2.71;86.61;101160.02;104727;1267;98530;-76
2023/03/16 08:11:00;;;;;;;39.00;18.40;;;;;;;2.80;86.45;101157.19;104978;1264;97992;-78
2023/03/16 08:13:58;;;;;;;36.30;19.40;;;;;;;2.87;86.36;101157.30;105016;1268;98413;-77
2023/03/16 08:16:51;;;;;;;44.30;21.40;;;;;;;2.97;86.17;101164.79;104988;1264;102595;-76
2023/03/16 08:19:38;;;;;;;38.70;17.40;;;;;;;3.06;85.91;101164.90;105149;1266;99147;-76
2023/03/16 08:22:26;;;;;;;31.80;17.20;;;;;;;3.12;85.53;101168.13;105275;1265;97978;-75
2023/03/16 08:25:14;;;;;;;35.60;17.20;;;;;;;3.19;85.59;101171.23;105120;1263;97954;-76
2023/03/16 08:28:07;;;;;;;38.00;18.00;;;;;;;3.26;85.42;101171.91;105408;1264;98060;-76
2023/03/16 08:30:54;;;;;;;33.80;19.70;;;;;;;3.32;85.17;101172.48;105054;1265;102574;-77
2023/03/16 08:33:52;;;;;;;39.60;19.70;;;;;;;3.39;85.37;101172.54;105003;1264;100337;-76
2023/03/16 08:36:42;;;;;;;35.90;20.30;;;;;;;3.47;85.05;101176.17;104977;1264;99289;-78
2023/03/16 08:39:28;;;;;;;43.10;21.20;;;;;;;3.52;85.02;101169.34;104906;1268;97959;-77
2023/03/16 08:42:15;;;;;;;37.40;18.60;;;;;;;3.60;85.23;101166.41;105262;1265;98390;-75
2023/03/16 08:45:09;;;;;;;32.40;17.60;;;;;;;3.70;84.98;101168.73;105273;1266;101403;-77
2023/03/16 08:47:55;;;;;;;37.60;18.00;;;;;;;3.78;84.59;101175.10;105295;1266;99291;-77
2023/03/16 08:50:42;;;;;;;34.70;20.50;;;;;;;3.84;84.41;101177.55;105234;1268;98047;-77
2023/03/16 08:53:29;;;;;;;34.40;17.30;;;;;;;3.93;84.33;101180.36;104775;1266;98521;-76
2023/03/16 08:56:14;;;;;;;29.30;14.40;;;;;;;4.00;83.92;101178.15;104931;1268;98464;-77
2023/03/16 08:59:00;;;;;;;24.80;13.20;;;;;;;4.03;83.42;101180.02;104886;1265;101390;-76
2023/03/16 09:01:46;;;;;;;24.50;12.90;;;;;;;4.07;83.22;101183.04;104774;1266;99238;-76
2023/03/16 09:04:31;;;;;;;28.90;13.50;;;;;;;4.11;83.06;101185.52;104975;1268;98226;-77
2023/03/16 09:07:18;;;;;;;25.90;13.00;;;;;;;4.15;82.86;101185.00;105148;1265;97983;-76
2023/03/16 09:10:06;;;;;;;23.40;12.40;;;;;;;4.20;82.93;101188.98;105069;1267;98499;-77
2023/03/16 09:12:52;;;;;;;22.70;12.70;;;;;;;4.26;82.95;101192.83;105107;1265;102359;-77
2023/03/16 09:15:38;;;;;;;25.00;11.30;;;;;;;4.34;82.58;101188.94;104831;1266;99113;-75
2023/03/16 09:18:26;;;;;;;18.10;9.60;;;;;;;4.42;82.38;101186.63;104779;1264;98543;-77
2023/03/16 09:21:12;;;;;;;22.50;10.30;;;;;;;4.50;81.56;101188.29;104867;1267;99021;-77
2023/03/16 09:23:58;;;;;;;21.20;10.00;;;;;;;4.56;81.75;101187.94;104762;1265;97948;-75
2023/03/16 09:26:44;;;;;;;18.70;10.20;;;;;;;4.65;81.33;101187.08;104756;1262;101479;-77
2023/03/16 09:29:30;;;;;;;18.90;9.80;;;;;;;4.74;81.46;101189.04;104838;1266;99072;-78
2023/03/16 09:32:16;;;;;;;18.00;10.40;;;;;;;4.82;81.02;101190.04;105015;1267;99250;-78
2023/03/16 09:35:04;;;;;;;19.80;10.00;;;;;;;4.88;80.51;101193.38;105577;1265;97946;-85
2023/03/16 09:37:58;;;;;;;19.70;10.60;;;;;;;4.93;80.62;101192.38;106393;1264;97959;-90
2023/03/16 09:40:47;;;;;;;19.70;10.40;;;;;;;5.01;80.50;101188.15;105980;1264;101514;-76
2023/03/16 09:43:55;;;;;;;19.40;10.10;;;;;;;5.10;80.61;101187.73;106037;1265;99103;-82
2023/03/16 09:46:45;;;;;;;20.20;10.80;;;;;;;5.18;79.90;101187.98;105821;1278;98915;-82
2023/03/16 09:49:45;;;;;;;20.70;9.00;;;;;;;5.24;79.37;101186.25;106068;1264;96602;-87
2023/03/16 09:52:44;;;;;;;;;;;;;;;5.33;79.74;101189.67;105929;1264;98072;-87
2023/03/16 09:55:33;;;;;;;16.00;7.30;;;;;;;5.38;78.89;101191.67;105916;1267;101247;-84
2023/03/16 09:58:21;;;;;;;15.70;8.00;;;;;;;5.41;77.68;101195.48;105912;1267;100376;-77
2023/03/16 10:01:23;;;;;;;14.10;6.50;;;;;;;5.40;77.17;101195.20;105274;1265;99141;-81
2023/03/16 10:04:20;;;;;;;18.40;8.30;;;;;;;5.44;77.02;101197.46;105977;1266;98081;-87
2023/03/16 10:07:20;;;;;;;16.10;8.60;;;;;;;5.51;77.10;101195.25;106120;1266;98560;-81
2023/03/16 10:10:08;;;;;;;17.80;7.60;;;;;;;5.61;77.59;101198.80;105314;1269;101448;-84
2023/03/16 10:12:59;;;;;;;22.00;9.30;;;;;;;5.71;77.16;101195.21;105802;1267;100593;-83
2023/03/16 10:15:47;;;;;;;21.30;8.30;;;;;;;5.79;77.03;101197.08;105747;1265;98480;-81
2023/03/16 10:18:45;;;;;;;18.40;8.90;;;;;;;5.92;77.18;101198.21;105355;1264;97940;-83
2023/03/16 10:21:37;;;;;;;21.10;8.20;;;;;;;6.04;77.12;101198.28;105745;1264;97923;-84
2023/03/16 10:24:52;;;;;;;18.40;8.60;;;;;;;6.10;76.56;101201.84;105054;1267;102120;-78
2023/03/16 10:27:45;;;;;;;16.00;6.00;;;;;;;6.06;75.52;101199.35;105436;1263;99153;-86
2023/03/16 10:30:33;;;;;;;17.20;6.70;;;;;;;6.07;74.81;101206.20;105524;1264;99158;-79
2023/03/16 10:33:28;;;;;;;19.00;6.80;;;;;;;6.11;75.23;101206.31;106010;1264;97892;-87
2023/03/16 10:36:33;;;;;;;15.20;7.20;;;;;;;6.20;75.37;101205.27;106536;1268;97895;-90
2023/03/16 10:39:20;;;;;;;18.20;7.10;;;;;;;6.23;75.01;101212.11;106270;1263;103418;-86
2023/03/16 10:42:14;;;;;;;18.10;8.10;;;;;;;6.19;74.32;101216.23;105719;1268;100098;-85
2023/03/16 10:45:02;;;;;;;21.80;7.80;;;;;;;6.19;74.75;101211.44;105945;1263;99587;-86
2023/03/16 10:47:50;;;;;;;18.30;7.00;;;;;;;6.26;75.13;101211.30;105739;1264;97979;-82
2023/03/16 10:50:36;;;;;;;14.20;7.30;;;;;;;6.24;74.32;101213.27;105910;1264;97889;-88
2023/03/16 10:53:25;;;;;;;14.80;6.60;;;;;;;6.20;74.37;101214.14;105948;1262;101357;-77
2023/03/16 10:56:19;;;;;;;17.80;7.00;;;;;;;6.26;74.46;101215.54;105455;1264;99167;-84
2023/03/16 10:59:56;;;;;;;17.80;7.50;;;;;;;6.36;74.45;101210.50;106566;1264;97906;-88
2023/03/16 11:03:23;;;;;;;21.70;6.70;;;;;;;6.42;74.49;101215.46;107108;1267;96143;-85
2023/03/16 11:06:21;;;;;;;16.90;7.50;;;;;;;6.41;73.53;101216.20;106289;1268;99253;-88
2023/03/16 11:09:21;;;;;;;19.60;6.70;;;;;;;6.39;73.47;101215.77;107147;1265;102545;-78
2023/03/16 11:12:21;;;;;;;18.00;6.80;;;;;;;6.34;73.25;101210.67;105046;1265;100291;-76
2023/03/16 11:15:13;;;;;;;17.00;7.10;;;;;;;6.33;72.83;101212.78;104843;1267;98921;-76
2023/03/16 11:17:59;;;;;;;18.20;7.40;;;;;;;6.41;73.37;101218.73;104912;1266;98046;-75
2023/03/16 11:20:46;;;;;;;17.80;6.70;;;;;;;6.53;73.56;101214.54;104944;1268;99270;-76
2023/03/16 11:23:34;;;;;;;15.30;6.60;;;;;;;6.62;73.39;101213.29;104918;1268;101369;-77
2023/03/16 11:26:41;;;;;;;15.20;7.30;;;;;;;6.66;73.56;101217.56;105009;1268;100437;-77
2023/03/16 11:29:33;;;;;;;14.40;6.30;;;;;;;6.63;72.40;101220.13;104878;1264;98743;-76
2023/03/16 11:32:25;;;;;;;15.40;5.70;;;;;;;6.52;71.47;101220.17;104731;1268;98101;-76
2023/03/16 11:35:18;;;;;;;19.00;6.40;;;;;;;6.38;71.39;101222.42;104992;1265;99715;-75
2023/03/16 11:38:10;;;;;;;12.10;5.60;;;;;;;6.24;71.38;101224.90;104770;1265;102694;-75
2023/03/16 11:41:16;;;;;;;22.10;7.20;;;;;;;6.16;71.52;101221.95;104770;1265;100772;-78
2023/03/16 11:44:06;;;;;;;15.40;5.80;;;;;;;6.12;71.94;101219.33;104777;1266;99247;-76
2023/03/16 11:47:15;;;;;;;18.50;6.60;;;;;;;6.11;72.53;101218.52;105119;1266;98076;-76
2023/03/16 11:50:08;;;;;;;18.50;6.50;;;;;;;6.12;72.71;101214.54;105043;1266;98691;-75
2023/03/16 11:53:21;;;;;;;14.30;5.20;;;;;;;6.15;72.45;101212.52;105060;1268;102671;-76
2023/03/16 11:56:10;;;;;;;13.70;5.00;;;;;;;6.25;72.42;101205.54;105010;1267;100417;-77
2023/03/16 11:59:29;;;;;;;12.50;4.40;;;;;;;6.42;72.12;101199.25;105138;1264;99105;-76
2023/03/16 12:02:25;;;;;;;14.80;3.90;;;;;;;6.65;71.07;101196.55;105141;1264;98077;-77
2023/03/16 12:05:31;;;;;;;14.90;4.90;;;;;;;6.86;69.97;101197.31;105016;1267;98476;-77
2023/03/16 12:08:32;;;;;;;15.10;6.00;;;;;;;6.96;69.63;101201.40;105096;1268;102614;-76
2023/03/16 12:11:34;;;;;;;13.60;6.00;;;;;;;6.95;69.11;101201.21;105079;1265;100452;-77
2023/03/16 12:14:32;;;;;;;10.50;3.80;;;;;;;6.83;67.46;101208.26;104985;1267;98994;-77
2023/03/16 12:17:30;;;;;;;9.90;3.60;;;;;;;6.66;65.52;101208.81;104852;1266;98708;-76
2023/03/16 12:20:25;;;;;;;11.10;3.80;;;;;;;6.56;65.02;101208.58;104729;1265;97974;-77
2023/03/16 12:23:18;;;;;;;15.40;4.70;;;;;;;6.50;64.57;101211.11;104963;1265;101453;-76
2023/03/16 12:26:04;;;;;;;8.90;4.00;;;;;;;6.47;64.87;101208.89;105030;1268;99150;-75
2023/03/16 12:28:51;;;;;;;13.00;4.40;;;;;;;6.43;64.49;101210.88;104945;1280;98820;-75
2023/03/16 12:31:48;;;;;;;8.60;4.50;;;;;;;6.35;64.66;101209.70;104772;1266;97987;-76
2023/03/16 12:34:49;;;;;;;8.50;4.00;;;;;;;6.29;65.00;101210.99;104801;1266;97985;-76
2023/03/16 12:38:06;;;;;;;15.00;4.30;;;;;;;6.24;65.26;101211.82;104673;1265;101351;-76
2023/03/16 12:41:05;;;;;;;12.60;4.50;;;;;;;6.20;65.85;101213.20;104868;1264;100342;-77
2023/03/16 12:44:00;;;;;;;32.60;13.10;;;;;;;6.17;65.50;101216.71;104752;1264;100387;-77
2023/03/16 12:47:15;;;;;;;18.20;8.70;;;;;;;6.14;65.33;101217.69;104815;1268;98654;-77
2023/03/16 12:50:07;;;;;;;17.50;7.90;;;;;;;6.14;65.41;101215.56;104888;1266;98606;-76